createdAt,value
2022-11-09T00:00:11.302Z,18.49
2022-11-09T00:01:10.627Z,18.45
2022-11-09T00:02:10.998Z,18.51
2022-11-09T00:03:09.890Z,18.51
2022-11-09T00:04:10.475Z,18.48
2022-11-09T00:05:10.562Z,18.45
2022-11-09T00:06:10.649Z,18.47
2022-11-09T00:07:10.628Z,18.49
2022-11-09T00:08:10.121Z,18.48
2022-11-09T00:09:11.012Z,18.48
2022-11-09T00:10:10.412Z,18.47
2022-11-09T00:11:10.700Z,18.52
2022-11-09T00:12:10.925Z,18.51
2022-11-09T00:13:10.433Z,18.52
2022-11-09T00:14:10.347Z,18.55
2022-11-09T00:15:11.102Z,18.58
2022-11-09T00:16:10.238Z,18.57
2022-11-09T00:17:10.856Z,18.63
2022-11-09T00:18:29.652Z,18.63
2022-11-09T00:19:10.851Z,18.63
2022-11-09T00:20:10.671Z,18.63
2022-11-09T00:21:11.116Z,18.59
2022-11-09T00:22:10.184Z,18.57
2022-11-09T00:23:10.476Z,18.61
2022-11-09T00:24:10.881Z,18.64
2022-11-09T00:25:11.341Z,18.67
2022-11-09T00:26:10.747Z,18.68
2022-11-09T00:27:15.169Z,18.65
2022-11-09T00:28:10.232Z,18.64
2022-11-09T00:29:10.873Z,18.67
2022-11-09T00:30:11.477Z,18.67
2022-11-09T00:31:10.659Z,18.64
2022-11-09T00:32:10.866Z,18.64
2022-11-09T00:33:10.496Z,18.63
2022-11-09T00:34:10.507Z,18.62
2022-11-09T00:35:10.863Z,18.59
2022-11-09T00:36:10.196Z,18.59
2022-11-09T00:37:10.203Z,18.56
2022-11-09T00:38:10.424Z,18.57
2022-11-09T00:39:10.348Z,18.56
2022-11-09T00:40:10.792Z,18.59
2022-11-09T00:41:10.811Z,18.62
2022-11-09T00:42:11.043Z,18.60
2022-11-09T00:43:10.387Z,18.59
2022-11-09T00:44:10.973Z,18.55
2022-11-09T00:45:10.602Z,18.53
2022-11-09T00:46:10.755Z,18.50
2022-11-09T00:47:10.098Z,18.51
2022-11-09T00:48:10.426Z,18.5
2022-11-09T00:49:10.199Z,18.48
2022-11-09T00:50:10.388Z,18.48
2022-11-09T00:51:10.523Z,18.48
2022-11-09T00:52:10.325Z,18.51
2022-11-09T00:53:10.127Z,18.54
2022-11-09T00:54:10.750Z,18.54
2022-11-09T00:55:10.884Z,18.57
2022-11-09T00:56:10.871Z,18.60
2022-11-09T00:57:10.908Z,18.60
2022-11-09T00:58:11.047Z,18.62
2022-11-09T00:59:10.207Z,18.65
2022-11-09T01:00:10.981Z,18.65
2022-11-09T01:01:11.575Z,18.61
2022-11-09T01:02:10.918Z,18.63
2022-11-09T01:03:11.327Z,18.58
2022-11-09T01:04:10.835Z,18.57
2022-11-09T01:05:11.285Z,18.57
2022-11-09T01:06:10.616Z,18.56
2022-11-09T01:07:10.109Z,18.55
2022-11-09T01:08:10.358Z,18.52
2022-11-09T01:09:10.650Z,18.52
2022-11-09T01:10:10.939Z,18.53
2022-11-09T01:11:10.937Z,18.54
2022-11-09T01:12:10.197Z,18.56
2022-11-09T01:13:10.405Z,18.57
2022-11-09T01:14:10.912Z,18.57
2022-11-09T01:15:11.814Z,18.59
2022-11-09T01:16:10.250Z,18.58
2022-11-09T01:17:11.237Z,18.57
2022-11-09T01:18:10.388Z,18.55
2022-11-09T01:19:10.590Z,18.54
2022-11-09T01:20:10.723Z,18.53
2022-11-09T01:21:10.542Z,18.52
2022-11-09T01:22:10.822Z,18.50
2022-11-09T01:23:10.823Z,18.51
2022-11-09T01:24:10.865Z,18.53
2022-11-09T01:25:10.578Z,18.52
2022-11-09T01:26:10.805Z,18.48
2022-11-09T01:27:10.987Z,18.51
2022-11-09T01:28:10.140Z,18.49
2022-11-09T01:29:10.237Z,18.47
2022-11-09T01:30:11.265Z,18.47
2022-11-09T01:31:11.375Z,18.47
2022-11-09T01:32:10.921Z,18.46
2022-11-09T01:33:10.959Z,18.45
2022-11-09T01:34:10.656Z,18.46
2022-11-09T01:35:11.081Z,18.48
2022-11-09T01:36:10.160Z,18.48
2022-11-09T01:37:10.245Z,18.48
2022-11-09T01:38:10.501Z,18.49
2022-11-09T01:39:10.634Z,18.50
2022-11-09T01:40:10.860Z,18.48
2022-11-09T01:41:10.964Z,18.51
2022-11-09T01:42:10.091Z,18.52
2022-11-09T01:43:10.162Z,18.55
2022-11-09T01:44:10.841Z,18.54
2022-11-09T01:45:11.176Z,18.53
2022-11-09T01:46:10.620Z,18.55
2022-11-09T01:47:10.683Z,18.56
2022-11-09T01:48:10.826Z,18.56
2022-11-09T01:49:10.784Z,18.59
2022-11-09T01:50:10.857Z,18.56
2022-11-09T01:51:10.965Z,18.56
2022-11-09T01:52:10.298Z,18.54
2022-11-09T01:53:11.114Z,18.54
2022-11-09T01:54:11.231Z,18.55
2022-11-09T01:55:10.371Z,18.54
2022-11-09T01:56:10.866Z,18.54
2022-11-09T01:57:11.163Z,18.51
2022-11-09T01:58:10.862Z,18.53
2022-11-09T01:59:11.460Z,18.55
2022-11-09T02:00:11.341Z,18.58
2022-11-09T02:01:10.832Z,18.56
2022-11-09T02:02:10.271Z,18.56
2022-11-09T02:03:10.820Z,18.56
2022-11-09T02:04:11.181Z,18.60
2022-11-09T02:05:10.111Z,18.62
2022-11-09T02:06:10.261Z,18.62
2022-11-09T02:07:10.361Z,18.64
2022-11-09T02:08:10.885Z,18.62
2022-11-09T02:09:10.991Z,18.59
2022-11-09T02:10:10.889Z,18.59
2022-11-09T02:11:10.733Z,18.63
2022-11-09T02:12:11.285Z,18.61
2022-11-09T02:13:10.416Z,18.63
2022-11-09T02:14:10.263Z,18.58
2022-11-09T02:15:10.759Z,18.57
2022-11-09T02:16:11.222Z,18.60
2022-11-09T02:17:10.042Z,18.62
2022-11-09T02:18:10.476Z,18.62
2022-11-09T02:19:10.588Z,18.65
2022-11-09T02:20:10.992Z,18.65
2022-11-09T02:21:10.891Z,18.65
2022-11-09T02:22:11.257Z,18.64
2022-11-09T02:23:10.435Z,18.64
2022-11-09T02:24:10.740Z,18.65
2022-11-09T02:25:11.125Z,18.68
2022-11-09T02:26:10.546Z,18.67
2022-11-09T02:27:10.627Z,18.67
2022-11-09T02:28:10.849Z,18.67
2022-11-09T02:29:10.917Z,18.68
2022-11-09T02:30:11.523Z,18.67
2022-11-09T02:31:11.026Z,18.68
2022-11-09T02:32:10.466Z,18.65
2022-11-09T02:33:10.492Z,18.64
2022-11-09T02:34:10.301Z,18.64
2022-11-09T02:35:10.456Z,18.65
2022-11-09T02:36:10.903Z,18.67
2022-11-09T02:37:11.126Z,18.66
2022-11-09T02:38:10.608Z,18.68
2022-11-09T02:39:11.240Z,18.65
2022-11-09T02:40:10.506Z,18.61
2022-11-09T02:41:11.117Z,18.60
2022-11-09T02:42:11.416Z,18.56
2022-11-09T02:43:11.123Z,18.53
2022-11-09T02:44:10.879Z,18.52
2022-11-09T02:45:10.618Z,18.53
2022-11-09T02:46:10.988Z,18.54
2022-11-09T02:47:11.230Z,18.53
2022-11-09T02:48:10.756Z,18.51
2022-11-09T02:49:11.271Z,18.50
2022-11-09T02:50:10.656Z,18.48
2022-11-09T02:51:10.933Z,18.47
2022-11-09T02:52:11.105Z,18.47
2022-11-09T02:53:11.201Z,18.42
2022-11-09T02:54:10.905Z,18.39
2022-11-09T02:55:11.196Z,18.42
2022-11-09T02:56:10.321Z,18.43
2022-11-09T02:57:10.395Z,18.44
2022-11-09T02:58:10.611Z,18.45
2022-11-09T02:59:10.786Z,18.43
2022-11-09T03:00:11.520Z,18.43
2022-11-09T03:01:10.847Z,18.43
2022-11-09T03:02:11.073Z,18.42
2022-11-09T03:03:11.144Z,18.42
2022-11-09T03:04:10.461Z,18.44
2022-11-09T03:05:10.881Z,18.45
2022-11-09T03:06:09.949Z,18.43
2022-11-09T03:07:10.318Z,18.39
2022-11-09T03:08:10.500Z,18.40
2022-11-09T03:09:10.406Z,18.40
2022-11-09T03:10:10.716Z,18.42
2022-11-09T03:11:11.360Z,18.38
2022-11-09T03:12:10.721Z,18.37
2022-11-09T03:13:11.025Z,18.37
2022-11-09T03:14:10.538Z,18.35
2022-11-09T03:15:10.804Z,18.33
2022-11-09T03:16:10.889Z,18.32
2022-11-09T03:17:10.236Z,18.33
2022-11-09T03:18:10.416Z,18.35
2022-11-09T03:19:10.721Z,18.32
2022-11-09T03:20:10.416Z,18.27
2022-11-09T03:21:10.670Z,18.28
2022-11-09T03:22:10.915Z,18.23
2022-11-09T03:23:10.991Z,18.20
2022-11-09T03:24:10.917Z,18.23
2022-11-09T03:25:11.080Z,18.23
2022-11-09T03:26:10.221Z,18.26
2022-11-09T03:27:10.695Z,18.26
2022-11-09T03:28:10.817Z,18.26
2022-11-09T03:29:10.777Z,18.25
2022-11-09T03:30:11.220Z,18.24
2022-11-09T03:31:10.215Z,18.21
2022-11-09T03:32:10.424Z,18.19
2022-11-09T03:33:10.456Z,18.15
2022-11-09T03:34:10.223Z,18.17
2022-11-09T03:35:10.514Z,18.18
2022-11-09T03:36:11.010Z,18.19
2022-11-09T03:37:10.257Z,18.20
2022-11-09T03:38:10.695Z,18.20
2022-11-09T03:39:10.212Z,18.22
2022-11-09T03:40:10.157Z,18.21
2022-11-09T03:41:10.350Z,18.25
2022-11-09T03:42:10.464Z,18.27
2022-11-09T03:43:10.689Z,18.28
2022-11-09T03:44:11.034Z,18.27
2022-11-09T03:45:10.712Z,18.24
2022-11-09T03:46:11.149Z,18.21
2022-11-09T03:47:10.067Z,18.22
2022-11-09T03:48:10.082Z,18.25
2022-11-09T03:49:11.736Z,18.25
2022-11-09T03:50:11.324Z,18.27
2022-11-09T03:51:10.532Z,18.26
2022-11-09T03:52:10.937Z,18.27
2022-11-09T03:53:11.206Z,18.29
2022-11-09T03:54:11.058Z,18.25
2022-11-09T03:55:11.427Z,18.25
2022-11-09T03:56:10.744Z,18.26
2022-11-09T03:57:10.678Z,18.29
2022-11-09T03:58:10.995Z,18.29
2022-11-09T03:59:10.215Z,18.29
2022-11-09T04:00:11.072Z,18.27
2022-11-09T04:01:10.472Z,18.26
2022-11-09T04:02:11.237Z,18.28
2022-11-09T04:03:10.734Z,18.28
2022-11-09T04:04:10.513Z,18.28
2022-11-09T04:05:10.923Z,18.27
2022-11-09T04:06:10.222Z,18.28
2022-11-09T04:07:10.640Z,18.27
2022-11-09T04:08:10.241Z,18.28
2022-11-09T04:09:10.354Z,18.23
2022-11-09T04:10:10.457Z,18.22
2022-11-09T04:11:10.497Z,18.23
2022-11-09T04:12:10.574Z,18.25
2022-11-09T04:13:10.329Z,18.28
2022-11-09T04:14:10.765Z,18.23
2022-11-09T04:15:11.188Z,18.20
2022-11-09T04:16:10.508Z,18.18
2022-11-09T04:17:10.609Z,18.19
2022-11-09T04:18:11.112Z,18.13
2022-11-09T04:19:10.348Z,18.13
2022-11-09T04:20:10.702Z,18.10
2022-11-09T04:21:10.991Z,18.11
2022-11-09T04:22:10.897Z,18.14
2022-11-09T04:23:10.941Z,18.13
2022-11-09T04:24:10.550Z,18.10
2022-11-09T04:25:10.542Z,18.10
2022-11-09T04:26:11.312Z,18.11
2022-11-09T04:27:10.301Z,18.12
2022-11-09T04:28:10.569Z,18.15
2022-11-09T04:29:10.688Z,18.15
2022-11-09T04:30:10.947Z,18.17
2022-11-09T04:31:10.742Z,18.17
2022-11-09T04:32:10.986Z,18.18
2022-11-09T04:33:10.241Z,18.21
2022-11-09T04:34:10.607Z,18.23
2022-11-09T04:35:10.988Z,18.22
2022-11-09T04:36:10.380Z,18.20
2022-11-09T04:37:10.605Z,18.19
2022-11-09T04:38:10.909Z,18.18
2022-11-09T04:39:10.947Z,18.18
2022-11-09T04:40:11.117Z,18.21
2022-11-09T04:41:11.211Z,18.20
2022-11-09T04:42:10.424Z,18.22
2022-11-09T04:43:10.433Z,18.21
2022-11-09T04:44:10.529Z,18.23
2022-11-09T04:45:10.626Z,18.22
2022-11-09T04:46:10.925Z,18.24
2022-11-09T04:47:11.006Z,18.26
2022-11-09T04:48:10.399Z,18.26
2022-11-09T04:49:10.820Z,18.23
2022-11-09T04:50:11.403Z,18.22
2022-11-09T04:51:10.681Z,18.25
2022-11-09T04:52:10.617Z,18.25
2022-11-09T04:53:10.574Z,18.26
2022-11-09T04:54:10.913Z,18.23
2022-11-09T04:55:11.136Z,18.23
2022-11-09T04:56:10.456Z,18.23
2022-11-09T04:57:10.636Z,18.25
2022-11-09T04:58:10.829Z,18.25
2022-11-09T04:59:11.136Z,18.25
2022-11-09T05:00:10.974Z,18.26
2022-11-09T05:01:10.509Z,18.27
2022-11-09T05:02:10.543Z,18.29
2022-11-09T05:03:10.938Z,18.29
2022-11-09T05:04:10.773Z,18.26
2022-11-09T05:05:11.395Z,18.28
2022-11-09T05:06:10.751Z,18.30
2022-11-09T05:07:10.800Z,18.31
2022-11-09T05:08:10.568Z,18.31
2022-11-09T05:09:11.204Z,18.32
2022-11-09T05:10:32.728Z,18.32
2022-11-09T05:11:10.934Z,18.33
2022-11-09T05:12:10.343Z,18.32
2022-11-09T05:13:10.750Z,18.31
2022-11-09T05:14:10.562Z,18.32
2022-11-09T05:15:10.879Z,18.29
2022-11-09T05:16:10.196Z,18.26
2022-11-09T05:17:11.302Z,18.28
2022-11-09T05:18:10.675Z,18.25
2022-11-09T05:19:11.452Z,18.26
2022-11-09T05:20:11.393Z,18.28
2022-11-09T05:21:10.345Z,18.31
2022-11-09T05:22:10.799Z,18.32
2022-11-09T05:23:11.198Z,18.30
2022-11-09T05:24:10.899Z,18.28
2022-11-09T05:25:11.819Z,18.26
2022-11-09T05:26:11.232Z,18.26
2022-11-09T05:27:10.728Z,18.28
2022-11-09T05:28:10.764Z,18.26
2022-11-09T05:29:11.443Z,18.23
2022-11-09T05:30:10.952Z,18.23
2022-11-09T05:31:10.505Z,18.20
2022-11-09T05:32:11.235Z,18.20
2022-11-09T05:33:10.604Z,18.18
2022-11-09T05:34:10.333Z,18.22
2022-11-09T05:35:10.839Z,18.19
2022-11-09T05:36:11.335Z,18.14
2022-11-09T05:37:10.619Z,18.14
2022-11-09T05:38:10.966Z,18.14
2022-11-09T05:39:11.588Z,18.19
2022-11-09T05:40:11.369Z,18.15
2022-11-09T05:41:10.616Z,18.10
2022-11-09T05:42:11.066Z,18.08
2022-11-09T05:43:10.332Z,18.09
2022-11-09T05:44:10.952Z,18.07
2022-11-09T05:45:40.277Z,18.02
2022-11-09T05:46:10.277Z,18.00
2022-11-09T05:47:10.537Z,18.04
2022-11-09T05:48:10.896Z,18.01
2022-11-09T05:49:10.872Z,18.01
2022-11-09T05:50:11.481Z,18.02
2022-11-09T05:51:10.848Z,18.03
2022-11-09T05:52:11.211Z,18.03
2022-11-09T05:53:10.522Z,17.98
2022-11-09T05:54:10.783Z,17.97
2022-11-09T05:55:11.410Z,17.93
2022-11-09T05:56:10.820Z,17.92
2022-11-09T05:57:11.073Z,17.89
2022-11-09T05:58:10.555Z,17.85
2022-11-09T05:59:10.751Z,17.82
2022-11-09T06:00:11.810Z,17.79
2022-11-09T06:01:10.345Z,17.76
2022-11-09T06:02:10.806Z,17.76
2022-11-09T06:03:10.283Z,17.77
2022-11-09T06:04:10.809Z,17.76
2022-11-09T06:05:10.850Z,17.74
2022-11-09T06:06:11.643Z,17.76
2022-11-09T06:07:11.851Z,17.77
2022-11-09T06:08:10.305Z,17.76
2022-11-09T06:09:10.636Z,17.76
2022-11-09T06:10:11.200Z,17.77
2022-11-09T06:11:11.316Z,17.77
2022-11-09T06:12:10.739Z,17.78
2022-11-09T06:13:11.256Z,17.79
2022-11-09T06:14:11.021Z,17.79
2022-11-09T06:15:11.296Z,17.76
2022-11-09T06:16:10.932Z,17.73
2022-11-09T06:17:10.799Z,17.73
2022-11-09T06:18:11.202Z,17.73
2022-11-09T06:19:11.116Z,17.71
2022-11-09T06:20:10.553Z,17.70
2022-11-09T06:21:11.026Z,17.68
2022-11-09T06:22:10.202Z,17.69
2022-11-09T06:23:10.428Z,17.72
2022-11-09T06:24:10.718Z,17.71
2022-11-09T06:25:11.407Z,17.70
2022-11-09T06:26:11.159Z,17.70
2022-11-09T06:27:10.986Z,17.70
2022-11-09T06:28:10.895Z,17.71
2022-11-09T06:29:11.354Z,17.68
2022-11-09T06:30:10.951Z,17.66
2022-11-09T06:31:10.123Z,17.65
2022-11-09T06:32:10.941Z,17.62
2022-11-09T06:33:10.610Z,17.60
2022-11-09T06:34:11.103Z,17.61
2022-11-09T06:35:10.232Z,17.60
2022-11-09T06:36:10.700Z,17.60
2022-11-09T06:37:11.176Z,17.57
2022-11-09T06:38:10.431Z,17.57
2022-11-09T06:39:10.321Z,17.54
2022-11-09T06:40:10.757Z,17.48
2022-11-09T06:41:10.591Z,17.46
2022-11-09T06:42:10.507Z,17.44
2022-11-09T06:43:11.233Z,17.42
2022-11-09T06:44:11.055Z,17.36
2022-11-09T06:45:11.142Z,17.35
2022-11-09T06:46:10.970Z,17.36
2022-11-09T06:47:11.295Z,17.37
2022-11-09T06:48:11.169Z,17.36
2022-11-09T06:49:11.383Z,17.38
2022-11-09T06:50:11.016Z,17.35
2022-11-09T06:51:10.867Z,17.32
2022-11-09T06:52:10.195Z,17.34
2022-11-09T06:53:10.979Z,17.37
2022-11-09T06:54:10.673Z,17.38
2022-11-09T06:55:11.098Z,17.38
2022-11-09T06:56:10.990Z,17.36
2022-11-09T06:57:11.247Z,17.37
2022-11-09T06:58:10.476Z,17.34
2022-11-09T06:59:11.034Z,17.31
2022-11-09T07:00:10.901Z,17.33
2022-11-09T07:01:10.809Z,17.26
2022-11-09T07:02:11.507Z,17.28
2022-11-09T07:03:10.886Z,17.28
2022-11-09T07:04:10.777Z,17.28
2022-11-09T07:05:18.466Z,17.29
2022-11-09T07:06:10.825Z,17.29
2022-11-09T07:07:27.948Z,17.29
2022-11-09T07:08:10.565Z,17.29
2022-11-09T07:09:10.530Z,17.29
2022-11-09T07:10:10.978Z,17.29
2022-11-09T07:11:11.278Z,17.31
2022-11-09T07:12:10.629Z,17.34
2022-11-09T07:13:10.656Z,17.36
2022-11-09T07:14:10.879Z,17.36
2022-11-09T07:15:11.194Z,17.36
2022-11-09T07:16:10.475Z,17.37
2022-11-09T07:17:10.973Z,17.36
2022-11-09T07:18:10.502Z,17.38
2022-11-09T07:19:11.079Z,17.40
2022-11-09T07:20:10.662Z,17.38
2022-11-09T07:21:14.222Z,17.39
2022-11-09T07:22:10.760Z,17.40
2022-11-09T07:23:11.163Z,17.41
2022-11-09T07:24:11.096Z,17.41
2022-11-09T07:25:10.719Z,17.43
2022-11-09T07:26:11.264Z,17.43
2022-11-09T07:27:10.570Z,17.45
2022-11-09T07:28:11.018Z,17.46
2022-11-09T07:29:11.285Z,17.48
2022-11-09T07:30:10.872Z,17.47
2022-11-09T07:31:10.478Z,17.45
2022-11-09T07:32:10.948Z,17.48
2022-11-09T07:33:11.181Z,17.44
2022-11-09T07:34:10.532Z,17.45
2022-11-09T07:35:11.144Z,17.44
2022-11-09T07:36:10.701Z,17.46
2022-11-09T07:37:10.627Z,17.46
2022-11-09T07:38:11.094Z,17.50
2022-11-09T07:39:11.539Z,17.52
2022-11-09T07:40:11.101Z,17.53
2022-11-09T07:41:11.169Z,17.52
2022-11-09T07:42:10.396Z,17.50
2022-11-09T07:43:10.951Z,17.47
2022-11-09T07:44:10.690Z,17.47
2022-11-09T07:45:11.038Z,17.49
2022-11-09T07:46:10.553Z,17.47
2022-11-09T07:47:14.501Z,17.45
2022-11-09T07:48:11.221Z,17.5
2022-11-09T07:49:10.343Z,17.52
2022-11-09T07:50:10.954Z,17.54
2022-11-09T07:51:11.214Z,17.55
2022-11-09T07:52:10.664Z,17.56
2022-11-09T07:53:10.748Z,17.61
2022-11-09T07:54:11.029Z,17.60
2022-11-09T07:56:10.797Z,17.60
2022-11-09T07:57:11.040Z,17.58
2022-11-09T07:58:10.598Z,17.59
2022-11-09T07:59:10.930Z,17.63
2022-11-09T08:00:10.796Z,17.66
2022-11-09T08:01:10.861Z,17.67
2022-11-09T08:02:10.999Z,17.74
2022-11-09T08:03:10.512Z,17.81
2022-11-09T08:04:10.963Z,17.82
2022-11-09T08:05:10.149Z,17.85
2022-11-09T08:06:14.343Z,17.87
2022-11-09T08:07:10.468Z,17.93
2022-11-09T08:08:10.822Z,17.95
2022-11-09T08:09:11.197Z,17.95
2022-11-09T08:10:10.629Z,17.96
2022-11-09T08:11:10.897Z,17.98
2022-11-09T08:12:11.379Z,18.02
2022-11-09T08:13:10.525Z,18.03
2022-11-09T08:14:11.106Z,18.04
2022-11-09T08:15:10.555Z,18.07
2022-11-09T08:16:10.813Z,18.11
2022-11-09T08:17:10.979Z,18.14
2022-11-09T08:18:10.720Z,18.17
2022-11-09T08:19:10.881Z,18.19
2022-11-09T08:20:11.252Z,18.21
2022-11-09T08:21:10.279Z,18.20
2022-11-09T08:22:10.783Z,18.22
2022-11-09T08:23:10.938Z,18.23
2022-11-09T08:24:10.477Z,18.20
2022-11-09T08:25:11.037Z,18.20
2022-11-09T08:26:12.565Z,18.24
2022-11-09T08:27:10.470Z,18.25
2022-11-09T08:28:14.477Z,18.26
2022-11-09T08:29:10.463Z,18.29
2022-11-09T08:30:11.512Z,18.32
2022-11-09T08:31:10.926Z,18.32
2022-11-09T08:32:10.366Z,18.32
2022-11-09T08:33:10.732Z,18.35
2022-11-09T08:34:11.092Z,18.38
2022-11-09T08:35:10.359Z,18.38
2022-11-09T08:36:10.803Z,18.40
2022-11-09T08:37:10.744Z,18.38
2022-11-09T08:38:10.947Z,18.35
2022-11-09T08:39:10.946Z,18.37
2022-11-09T08:40:10.517Z,18.41
2022-11-09T08:41:13.631Z,18.41
2022-11-09T08:42:10.446Z,18.43
2022-11-09T08:43:10.837Z,18.46
2022-11-09T08:44:11.079Z,18.49
2022-11-09T08:45:11.381Z,18.50
2022-11-09T08:46:10.697Z,18.49
2022-11-09T08:47:10.728Z,18.52
2022-11-09T08:48:10.533Z,18.53
2022-11-09T08:49:10.703Z,18.54
2022-11-09T08:50:11.007Z,18.55
2022-11-09T08:51:10.627Z,18.55
2022-11-09T08:52:10.927Z,18.60
2022-11-09T08:53:11.176Z,18.63
2022-11-09T08:54:10.516Z,18.65
2022-11-09T08:55:10.664Z,18.69
2022-11-09T08:56:11.087Z,18.75
2022-11-09T08:57:10.944Z,18.77
2022-11-09T08:58:10.642Z,18.81
2022-11-09T09:00:11.253Z,18.88
2022-11-09T09:01:16.431Z,18.89
2022-11-09T09:02:10.408Z,18.90
2022-11-09T09:03:10.938Z,18.96
2022-11-09T09:04:10.281Z,18.99
2022-11-09T09:05:10.293Z,19.01
2022-11-09T09:06:10.738Z,19.01
2022-11-09T09:07:11.445Z,19.05
2022-11-09T09:08:10.866Z,19.04
2022-11-09T09:09:11.141Z,19.03
2022-11-09T09:10:10.307Z,19.02
2022-11-09T09:11:11.049Z,19.03
2022-11-09T09:12:10.399Z,19.02
2022-11-09T09:13:10.665Z,19.06
2022-11-09T09:14:11.086Z,19.07
2022-11-09T09:15:11.339Z,19.09
2022-11-09T09:16:10.912Z,19.09
2022-11-09T09:17:10.796Z,19.12
2022-11-09T09:18:10.787Z,19.13
2022-11-09T09:19:10.577Z,19.13
2022-11-09T09:20:11.201Z,19.13
2022-11-09T09:21:10.327Z,19.17
2022-11-09T09:22:10.557Z,19.18
2022-11-09T09:23:10.937Z,19.14
2022-11-09T09:24:10.642Z,19.15
2022-11-09T09:25:10.978Z,19.17
2022-11-09T09:26:10.184Z,19.15
2022-11-09T09:27:10.940Z,19.20
2022-11-09T09:28:10.500Z,19.23
2022-11-09T09:29:11.294Z,19.22
2022-11-09T09:30:10.851Z,19.23
2022-11-09T09:31:13.133Z,19.24
2022-11-09T09:32:11.108Z,19.29
2022-11-09T09:33:10.602Z,19.29
2022-11-09T09:34:11.532Z,19.28
2022-11-09T09:35:10.471Z,19.27
2022-11-09T09:36:10.903Z,19.26
2022-11-09T09:37:11.522Z,19.28
2022-11-09T09:38:11.168Z,19.28
2022-11-09T09:39:10.821Z,19.29
2022-11-09T09:40:11.425Z,19.28
2022-11-09T09:41:10.393Z,19.29
2022-11-09T09:42:10.881Z,19.30
2022-11-09T09:43:11.419Z,19.29
2022-11-09T09:44:10.830Z,19.31
2022-11-09T09:45:11.372Z,19.29
2022-11-09T09:46:10.668Z,19.28
2022-11-09T09:47:10.887Z,19.32
2022-11-09T09:48:10.514Z,19.33
2022-11-09T09:49:10.596Z,19.33
2022-11-09T09:50:10.946Z,19.33
2022-11-09T09:51:10.191Z,19.38
2022-11-09T09:52:10.360Z,19.37
2022-11-09T09:53:23.639Z,19.39
2022-11-09T09:54:10.751Z,19.43
2022-11-09T09:55:11.043Z,19.44
2022-11-09T09:56:10.562Z,19.42
2022-11-09T09:57:10.881Z,19.43
2022-11-09T09:58:10.747Z,19.43
2022-11-09T09:59:10.777Z,19.44
2022-11-09T10:00:11.874Z,19.45
2022-11-09T10:01:10.572Z,19.47
2022-11-09T10:02:10.598Z,19.51
2022-11-09T10:03:10.954Z,19.54
2022-11-09T10:04:10.209Z,19.55
2022-11-09T10:05:10.604Z,19.57
2022-11-09T10:06:11.092Z,19.59
2022-11-09T10:07:11.220Z,19.60
2022-11-09T10:08:10.674Z,19.63
2022-11-09T10:09:10.754Z,19.63
2022-11-09T10:10:11.204Z,19.68
2022-11-09T10:11:10.485Z,19.72
2022-11-09T10:12:10.458Z,19.76
2022-11-09T10:13:10.853Z,19.81
2022-11-09T10:14:10.222Z,19.82
2022-11-09T10:15:10.834Z,19.88
2022-11-09T10:16:10.304Z,19.90
2022-11-09T10:17:10.663Z,19.95
2022-11-09T10:18:10.856Z,19.98
2022-11-09T10:19:11.140Z,20.02
2022-11-09T10:20:10.452Z,20.06
2022-11-09T10:21:10.721Z,20.10
2022-11-09T10:22:10.906Z,20.12
2022-11-09T10:23:10.832Z,20.15
2022-11-09T10:24:11.362Z,20.16
2022-11-09T10:25:50.412Z,20.17
2022-11-09T10:26:15.724Z,20.20
2022-11-09T10:27:10.669Z,20.25
2022-11-09T10:28:17.691Z,20.27
2022-11-09T10:29:16.866Z,20.26
2022-11-09T10:30:10.457Z,20.29
2022-11-09T10:31:10.755Z,20.31
2022-11-09T10:32:11.476Z,20.33
2022-11-09T10:33:10.617Z,20.34
2022-11-09T10:34:10.736Z,20.38
2022-11-09T10:35:11.313Z,20.37
2022-11-09T10:36:10.586Z,20.35
2022-11-09T10:37:11.027Z,20.38
2022-11-09T10:38:11.133Z,20.40
2022-11-09T10:39:11.145Z,20.43
2022-11-09T10:40:10.559Z,20.45
2022-11-09T10:41:11.058Z,20.41
2022-11-09T10:42:10.780Z,20.43
2022-11-09T10:43:11.086Z,20.44
2022-11-09T10:44:16.170Z,20.47
2022-11-09T10:45:10.802Z,20.52
2022-11-09T10:46:10.935Z,20.50
2022-11-09T10:47:11.269Z,20.55
2022-11-09T10:48:10.495Z,20.52
2022-11-09T10:49:10.723Z,20.53
2022-11-09T10:50:11.275Z,20.53
2022-11-09T10:51:11.146Z,20.55
2022-11-09T10:52:10.689Z,20.54
2022-11-09T10:53:11.191Z,20.51
2022-11-09T10:54:10.677Z,20.49
2022-11-09T10:55:11.480Z,20.47
2022-11-09T10:56:11.454Z,20.44
2022-11-09T10:57:11.200Z,20.41
2022-11-09T10:58:11.041Z,20.40
2022-11-09T10:59:11.049Z,20.37
2022-11-09T11:00:11.266Z,20.32
2022-11-09T11:01:11.027Z,20.29
2022-11-09T11:02:11.040Z,20.27
2022-11-09T11:03:10.997Z,20.25
2022-11-09T11:04:10.771Z,20.26
2022-11-09T11:05:11.599Z,20.28
2022-11-09T11:06:10.873Z,20.29
2022-11-09T11:07:10.542Z,20.27
2022-11-09T11:08:10.733Z,20.26
2022-11-09T11:09:11.589Z,20.26
2022-11-09T11:10:11.297Z,20.26
2022-11-09T11:11:31.753Z,20.22
2022-11-09T11:12:10.844Z,20.20
2022-11-09T11:13:10.608Z,20.16
2022-11-09T11:14:10.376Z,20.12
2022-11-09T11:15:11.574Z,20.04
2022-11-09T11:16:11.662Z,20.03
2022-11-09T11:17:11.543Z,20
2022-11-09T11:18:11.419Z,20.00
2022-11-09T11:19:10.990Z,20.01
2022-11-09T11:20:10.937Z,20.04
2022-11-09T11:21:14.880Z,20.01
2022-11-09T11:22:10.748Z,20.04
2022-11-09T11:23:11.512Z,20.03
2022-11-09T11:24:10.624Z,20.03
2022-11-09T11:25:11.165Z,20.01
2022-11-09T11:26:10.768Z,20.01
2022-11-09T11:27:11.405Z,20.03
2022-11-09T11:28:10.748Z,20.05
2022-11-09T11:29:11.463Z,20.04
2022-11-09T11:30:11.193Z,20.08
2022-11-09T11:31:10.720Z,20.07
2022-11-09T11:32:10.555Z,20.09
2022-11-09T11:33:11.159Z,20.07
2022-11-09T11:34:11.123Z,20.09
2022-11-09T11:35:11.637Z,20.10
2022-11-09T11:36:10.993Z,20.10
2022-11-09T11:37:11.052Z,20.09
2022-11-09T11:38:10.433Z,20.12
2022-11-09T11:39:11.197Z,20.13
2022-11-09T11:40:10.804Z,20.17
2022-11-09T11:41:10.948Z,20.13
2022-11-09T11:42:10.487Z,20.15
2022-11-09T11:43:11.035Z,20.18
2022-11-09T11:44:11.040Z,20.21
2022-11-09T11:45:39.141Z,20.23
2022-11-09T11:46:11.003Z,20.22
2022-11-09T11:47:10.663Z,20.20
2022-11-09T11:48:10.928Z,20.25
2022-11-09T11:49:11.142Z,20.25
2022-11-09T11:50:11.014Z,20.27
2022-11-09T11:51:15.548Z,20.31
2022-11-09T11:52:10.918Z,20.27
2022-11-09T11:53:11.311Z,20.25
2022-11-09T11:54:11.844Z,20.29
2022-11-09T11:55:18.434Z,20.28
2022-11-09T11:56:10.877Z,20.26
2022-11-09T11:57:11.320Z,20.28
2022-11-09T11:58:10.753Z,20.28
2022-11-09T11:59:11.033Z,20.29
2022-11-09T12:00:11.322Z,20.27
2022-11-09T12:01:11.067Z,20.25
2022-11-09T12:02:10.497Z,20.25
2022-11-09T12:03:11.561Z,20.22
2022-11-09T12:04:10.679Z,20.20
2022-11-09T12:05:11.346Z,20.20
2022-11-09T12:06:11.061Z,20.22
2022-11-09T12:07:10.915Z,20.21
2022-11-09T12:08:10.699Z,20.24
2022-11-09T12:09:11.306Z,20.29
2022-11-09T12:10:11.025Z,20.33
2022-11-09T12:11:10.668Z,20.36
2022-11-09T12:12:11.019Z,20.38
2022-11-09T12:13:11.097Z,20.38
2022-11-09T12:14:10.705Z,20.39
2022-11-09T12:15:10.986Z,20.35
2022-11-09T12:16:10.453Z,20.35
2022-11-09T12:17:11.183Z,20.35
2022-11-09T12:18:10.779Z,20.38
2022-11-09T12:19:11.402Z,20.39
2022-11-09T12:20:10.834Z,20.37
2022-11-09T12:21:10.398Z,20.35
2022-11-09T12:22:10.795Z,20.35
2022-11-09T12:23:10.945Z,20.37
2022-11-09T12:24:10.976Z,20.35
2022-11-09T12:25:11.716Z,20.33
2022-11-09T12:26:14.537Z,20.35
2022-11-09T12:27:31.082Z,20.36
2022-11-09T12:28:10.975Z,20.34
2022-11-09T12:29:10.721Z,20.36
2022-11-09T12:30:10.563Z,20.35
2022-11-09T12:31:33.124Z,20.32
2022-11-09T12:32:10.094Z,20.32
2022-11-09T12:33:10.578Z,20.31
2022-11-09T12:34:10.868Z,20.30
2022-11-09T12:35:11.449Z,20.31
2022-11-09T12:36:10.929Z,20.36
2022-11-09T12:37:10.435Z,20.40
2022-11-09T12:38:11.103Z,20.41
2022-11-09T12:39:10.700Z,20.40
2022-11-09T12:40:10.673Z,20.39
2022-11-09T12:41:11.210Z,20.41
2022-11-09T12:42:10.486Z,20.43
2022-11-09T12:43:10.772Z,20.46
2022-11-09T12:44:15.891Z,20.5
2022-11-09T12:45:10.745Z,20.51
2022-11-09T12:46:11.201Z,20.51
2022-11-09T12:47:10.675Z,20.54
2022-11-09T12:48:11.033Z,20.53
2022-11-09T12:49:10.424Z,20.58
2022-11-09T12:50:11.076Z,20.59
2022-11-09T12:51:10.725Z,20.57
2022-11-09T12:52:11.315Z,20.59
2022-11-09T12:53:10.869Z,20.61
2022-11-09T12:54:10.704Z,20.61